sensor_id;sensor_type;location;lat;lon;timestamp;P1;durP1;ratioP1;P2;durP2;ratioP2
15194;SDS011;7698;42.478;23.756;2023-04-24T00:00:53;8.65;;;7.85;;
15194;SDS011;7698;42.478;23.756;2023-04-24T00:03:21;8.45;;;7.68;;
15194;SDS011;7698;42.478;23.756;2023-04-24T00:05:48;11.63;;;9.25;;
15194;SDS011;7698;42.478;23.756;2023-04-24T00:08:16;17.95;;;12.70;;
15194;SDS011;7698;42.478;23.756;2023-04-24T00:10:44;16.67;;;13.27;;
15194;SDS011;7698;42.478;23.756;2023-04-24T00:13:11;16.58;;;13.75;;
15194;SDS011;7698;42.478;23.756;2023-04-24T00:15:37;15.32;;;12.85;;
15194;SDS011;7698;42.478;23.756;2023-04-24T00:18:04;14.48;;;10.30;;
15194;SDS011;7698;42.478;23.756;2023-04-24T00:20:31;8.85;;;7.93;;
15194;SDS011;7698;42.478;23.756;2023-04-24T00:22:58;7.93;;;7.13;;
15194;SDS011;7698;42.478;23.756;2023-04-24T00:25:25;10.25;;;7.13;;
15194;SDS011;7698;42.478;23.756;2023-04-24T00:27:53;10.25;;;7.80;;
15194;SDS011;7698;42.478;23.756;2023-04-24T00:30:20;8.75;;;7.57;;
15194;SDS011;7698;42.478;23.756;2023-04-24T00:32:47;8.98;;;8.18;;
15194;SDS011;7698;42.478;23.756;2023-04-24T00:35:13;8.85;;;7.95;;
15194;SDS011;7698;42.478;23.756;2023-04-24T00:37:40;7.68;;;6.97;;
15194;SDS011;7698;42.478;23.756;2023-04-24T00:40:08;8.32;;;7.63;;
15194;SDS011;7698;42.478;23.756;2023-04-24T00:42:35;7.63;;;5.93;;
15194;SDS011;7698;42.478;23.756;2023-04-24T00:45:04;9.73;;;7.40;;
15194;SDS011;7698;42.478;23.756;2023-04-24T00:47:32;8.25;;;7.45;;
15194;SDS011;7698;42.478;23.756;2023-04-24T00:50:00;9.75;;;8.77;;
15194;SDS011;7698;42.478;23.756;2023-04-24T00:52:28;9.75;;;8.38;;
15194;SDS011;7698;42.478;23.756;2023-04-24T00:54:56;7.93;;;7.20;;
15194;SDS011;7698;42.478;23.756;2023-04-24T00:57:23;8.10;;;7.35;;
15194;SDS011;7698;42.478;23.756;2023-04-24T00:59:50;7.22;;;6.53;;
15194;SDS011;7698;42.478;23.756;2023-04-24T01:02:19;7.97;;;7.22;;
15194;SDS011;7698;42.478;23.756;2023-04-24T01:04:47;8.68;;;7.78;;
15194;SDS011;7698;42.478;23.756;2023-04-24T01:07:16;9.82;;;8.90;;
15194;SDS011;7698;42.478;23.756;2023-04-24T01:09:45;6.97;;;6.38;;
15194;SDS011;7698;42.478;23.756;2023-04-24T01:12:16;8.88;;;8.07;;
15194;SDS011;7698;42.478;23.756;2023-04-24T01:14:43;9.13;;;8.23;;
15194;SDS011;7698;42.478;23.756;2023-04-24T01:17:10;8.60;;;7.85;;
15194;SDS011;7698;42.478;23.756;2023-04-24T01:19:39;8.00;;;7.30;;
15194;SDS011;7698;42.478;23.756;2023-04-24T01:22:11;6.90;;;6.28;;
15194;SDS011;7698;42.478;23.756;2023-04-24T01:24:39;6.57;;;5.97;;
15194;SDS011;7698;42.478;23.756;2023-04-24T01:27:06;10.27;;;8.05;;
15194;SDS011;7698;42.478;23.756;2023-04-24T01:29:34;10.02;;;9.13;;
15194;SDS011;7698;42.478;23.756;2023-04-24T01:32:01;11.63;;;10.52;;
15194;SDS011;7698;42.478;23.756;2023-04-24T01:34:29;12.38;;;10.27;;
15194;SDS011;7698;42.478;23.756;2023-04-24T01:36:56;7.68;;;6.97;;
15194;SDS011;7698;42.478;23.756;2023-04-24T01:39:24;9.40;;;8.60;;
15194;SDS011;7698;42.478;23.756;2023-04-24T01:41:51;9.93;;;9.05;;
15194;SDS011;7698;42.478;23.756;2023-04-24T01:44:18;10.38;;;9.48;;
15194;SDS011;7698;42.478;23.756;2023-04-24T01:46:45;10.32;;;9.32;;
15194;SDS011;7698;42.478;23.756;2023-04-24T01:49:12;9.43;;;8.52;;
15194;SDS011;7698;42.478;23.756;2023-04-24T01:51:39;9.60;;;8.80;;
15194;SDS011;7698;42.478;23.756;2023-04-24T01:54:06;11.48;;;10.35;;
15194;SDS011;7698;42.478;23.756;2023-04-24T01:56:34;9.93;;;9.02;;
15194;SDS011;7698;42.478;23.756;2023-04-24T01:59:01;9.75;;;8.85;;
15194;SDS011;7698;42.478;23.756;2023-04-24T02:01:33;10.15;;;9.25;;
15194;SDS011;7698;42.478;23.756;2023-04-24T02:04:01;8.30;;;7.50;;
15194;SDS011;7698;42.478;23.756;2023-04-24T02:06:28;10.23;;;7.35;;
15194;SDS011;7698;42.478;23.756;2023-04-24T02:08:56;9.57;;;8.80;;
15194;SDS011;7698;42.478;23.756;2023-04-24T02:11:23;8.52;;;7.82;;
15194;SDS011;7698;42.478;23.756;2023-04-24T02:13:51;7.60;;;6.88;;
15194;SDS011;7698;42.478;23.756;2023-04-24T02:16:18;9.10;;;8.30;;
15194;SDS011;7698;42.478;23.756;2023-04-24T02:18:45;8.70;;;7.90;;
15194;SDS011;7698;42.478;23.756;2023-04-24T02:21:12;10.23;;;9.20;;
15194;SDS011;7698;42.478;23.756;2023-04-24T02:23:39;12.35;;;11.13;;
15194;SDS011;7698;42.478;23.756;2023-04-24T02:26:06;9.45;;;8.45;;
15194;SDS011;7698;42.478;23.756;2023-04-24T02:28:33;12.10;;;10.90;;
15194;SDS011;7698;42.478;23.756;2023-04-24T02:31:01;13.20;;;11.90;;
15194;SDS011;7698;42.478;23.756;2023-04-24T02:33:28;9.40;;;8.60;;
15194;SDS011;7698;42.478;23.756;2023-04-24T02:35:54;8.18;;;7.47;;
15194;SDS011;7698;42.478;23.756;2023-04-24T02:38:21;7.40;;;6.38;;
15194;SDS011;7698;42.478;23.756;2023-04-24T02:40:48;9.05;;;8.18;;
15194;SDS011;7698;42.478;23.756;2023-04-24T02:43:15;9.90;;;8.05;;
15194;SDS011;7698;42.478;23.756;2023-04-24T02:45:42;7.68;;;6.95;;
15194;SDS011;7698;42.478;23.756;2023-04-24T02:48:10;8.50;;;7.70;;
15194;SDS011;7698;42.478;23.756;2023-04-24T02:50:37;9.23;;;8.32;;
15194;SDS011;7698;42.478;23.756;2023-04-24T02:53:03;7.13;;;6.47;;
15194;SDS011;7698;42.478;23.756;2023-04-24T02:55:30;10.50;;;9.60;;
15194;SDS011;7698;42.478;23.756;2023-04-24T02:57:57;10.85;;;9.85;;
15194;SDS011;7698;42.478;23.756;2023-04-24T03:00:24;12.48;;;11.27;;
15194;SDS011;7698;42.478;23.756;2023-04-24T03:02:51;12.23;;;11.13;;
15194;SDS011;7698;42.478;23.756;2023-04-24T03:05:19;9.52;;;8.73;;
15194;SDS011;7698;42.478;23.756;2023-04-24T03:07:46;9.13;;;8.27;;
15194;SDS011;7698;42.478;23.756;2023-04-24T03:10:13;11.40;;;10.30;;
15194;SDS011;7698;42.478;23.756;2023-04-24T03:12:40;9.43;;;8.63;;
15194;SDS011;7698;42.478;23.756;2023-04-24T03:15:07;9.02;;;8.23;;
15194;SDS011;7698;42.478;23.756;2023-04-24T03:17:35;10.73;;;9.05;;
15194;SDS011;7698;42.478;23.756;2023-04-24T03:20:02;8.63;;;7.72;;
15194;SDS011;7698;42.478;23.756;2023-04-24T03:22:31;8.50;;;7.70;;
15194;SDS011;7698;42.478;23.756;2023-04-24T03:24:58;8.35;;;7.65;;
15194;SDS011;7698;42.478;23.756;2023-04-24T03:27:25;8.55;;;7.85;;
15194;SDS011;7698;42.478;23.756;2023-04-24T03:29:52;6.20;;;5.63;;
15194;SDS011;7698;42.478;23.756;2023-04-24T03:32:20;6.60;;;6.00;;
15194;SDS011;7698;42.478;23.756;2023-04-24T03:34:47;7.35;;;6.63;;
15194;SDS011;7698;42.478;23.756;2023-04-24T03:37:15;6.65;;;6.05;;
15194;SDS011;7698;42.478;23.756;2023-04-24T03:39:43;10.93;;;9.80;;
15194;SDS011;7698;42.478;23.756;2023-04-24T03:42:10;8.73;;;7.93;;
15194;SDS011;7698;42.478;23.756;2023-04-24T03:44:36;11.00;;;9.93;;
15194;SDS011;7698;42.478;23.756;2023-04-24T03:47:03;10.15;;;9.25;;
15194;SDS011;7698;42.478;23.756;2023-04-24T03:49:30;15.82;;;13.32;;
15194;SDS011;7698;42.478;23.756;2023-04-24T03:51:57;21.38;;;17.02;;
15194;SDS011;7698;42.478;23.756;2023-04-24T03:54:24;17.83;;;15.93;;
15194;SDS011;7698;42.478;23.756;2023-04-24T03:56:52;17.60;;;15.85;;
15194;SDS011;7698;42.478;23.756;2023-04-24T03:59:19;17.65;;;15.80;;
15194;SDS011;7698;42.478;23.756;2023-04-24T04:01:45;14.05;;;12.65;;
15194;SDS011;7698;42.478;23.756;2023-04-24T04:04:12;12.25;;;10.95;;
15194;SDS011;7698;42.478;23.756;2023-04-24T04:06:39;11.23;;;10.13;;
15194;SDS011;7698;42.478;23.756;2023-04-24T04:09:06;12.65;;;11.45;;
15194;SDS011;7698;42.478;23.756;2023-04-24T04:11:33;11.27;;;10.27;;
15194;SDS011;7698;42.478;23.756;2023-04-24T04:14:02;12.88;;;11.57;;
15194;SDS011;7698;42.478;23.756;2023-04-24T04:16:29;10.02;;;9.13;;
15194;SDS011;7698;42.478;23.756;2023-04-24T04:18:56;10.48;;;9.10;;
15194;SDS011;7698;42.478;23.756;2023-04-24T04:21:23;11.48;;;9.95;;
15194;SDS011;7698;42.478;23.756;2023-04-24T04:23:51;9.25;;;8.43;;
15194;SDS011;7698;42.478;23.756;2023-04-24T04:26:18;10.05;;;9.15;;
15194;SDS011;7698;42.478;23.756;2023-04-24T04:28:46;11.95;;;10.65;;
15194;SDS011;7698;42.478;23.756;2023-04-24T04:31:15;12.20;;;10.85;;
15194;SDS011;7698;42.478;23.756;2023-04-24T04:33:42;12.77;;;11.48;;
15194;SDS011;7698;42.478;23.756;2023-04-24T04:36:09;14.50;;;12.40;;
15194;SDS011;7698;42.478;23.756;2023-04-24T04:38:37;12.02;;;10.77;;
15194;SDS011;7698;42.478;23.756;2023-04-24T04:41:05;13.60;;;12.20;;
15194;SDS011;7698;42.478;23.756;2023-04-24T04:43:32;12.07;;;10.88;;
15194;SDS011;7698;42.478;23.756;2023-04-24T04:45:59;11.07;;;10.00;;
15194;SDS011;7698;42.478;23.756;2023-04-24T04:48:29;10.50;;;9.50;;
15194;SDS011;7698;42.478;23.756;2023-04-24T04:50:56;11.55;;;10.55;;
15194;SDS011;7698;42.478;23.756;2023-04-24T04:53:23;9.32;;;8.45;;
15194;SDS011;7698;42.478;23.756;2023-04-24T04:55:50;10.27;;;8.73;;
15194;SDS011;7698;42.478;23.756;2023-04-24T04:58:17;8.75;;;7.95;;
15194;SDS011;7698;42.478;23.756;2023-04-24T05:00:44;7.93;;;7.13;;
15194;SDS011;7698;42.478;23.756;2023-04-24T05:03:11;8.45;;;7.65;;
15194;SDS011;7698;42.478;23.756;2023-04-24T05:05:39;6.75;;;6.25;;
15194;SDS011;7698;42.478;23.756;2023-04-24T05:08:06;10.82;;;7.20;;
15194;SDS011;7698;42.478;23.756;2023-04-24T05:10:33;7.40;;;6.68;;
15194;SDS011;7698;42.478;23.756;2023-04-24T05:13:01;7.20;;;6.25;;
15194;SDS011;7698;42.478;23.756;2023-04-24T05:15:29;7.70;;;5.97;;
15194;SDS011;7698;42.478;23.756;2023-04-24T05:17:56;7.05;;;5.82;;
15194;SDS011;7698;42.478;23.756;2023-04-24T05:20:22;6.90;;;5.90;;
15194;SDS011;7698;42.478;23.756;2023-04-24T05:22:51;6.35;;;5.78;;
15194;SDS011;7698;42.478;23.756;2023-04-24T05:25:18;6.57;;;5.00;;
15194;SDS011;7698;42.478;23.756;2023-04-24T05:27:44;6.28;;;5.68;;
15194;SDS011;7698;42.478;23.756;2023-04-24T05:30:12;6.25;;;5.70;;
15194;SDS011;7698;42.478;23.756;2023-04-24T05:32:39;7.47;;;6.13;;
15194;SDS011;7698;42.478;23.756;2023-04-24T05:35:06;8.18;;;6.00;;
15194;SDS011;7698;42.478;23.756;2023-04-24T05:37:33;7.43;;;5.93;;
15194;SDS011;7698;42.478;23.756;2023-04-24T05:40:01;5.30;;;4.80;;
15194;SDS011;7698;42.478;23.756;2023-04-24T05:42:30;7.30;;;5.32;;
15194;SDS011;7698;42.478;23.756;2023-04-24T05:44:57;5.07;;;4.50;;
15194;SDS011;7698;42.478;23.756;2023-04-24T05:47:24;5.18;;;4.65;;
15194;SDS011;7698;42.478;23.756;2023-04-24T05:49:51;5.22;;;4.82;;
15194;SDS011;7698;42.478;23.756;2023-04-24T05:52:18;5.63;;;5.05;;
15194;SDS011;7698;42.478;23.756;2023-04-24T05:54:45;5.55;;;5.05;;
15194;SDS011;7698;42.478;23.756;2023-04-24T05:57:13;6.03;;;5.53;;
15194;SDS011;7698;42.478;23.756;2023-04-24T05:59:40;5.65;;;5.15;;
15194;SDS011;7698;42.478;23.756;2023-04-24T06:02:07;5.68;;;4.97;;
15194;SDS011;7698;42.478;23.756;2023-04-24T06:04:34;4.97;;;4.57;;
15194;SDS011;7698;42.478;23.756;2023-04-24T06:07:01;5.95;;;5.45;;
15194;SDS011;7698;42.478;23.756;2023-04-24T06:09:28;6.20;;;5.57;;
15194;SDS011;7698;42.478;23.756;2023-04-24T06:11:54;6.28;;;5.68;;
15194;SDS011;7698;42.478;23.756;2023-04-24T06:14:23;8.40;;;6.03;;
15194;SDS011;7698;42.478;23.756;2023-04-24T06:16:50;8.70;;;6.10;;
15194;SDS011;7698;42.478;23.756;2023-04-24T06:19:17;6.97;;;5.38;;
15194;SDS011;7698;42.478;23.756;2023-04-24T06:21:44;5.43;;;4.63;;
15194;SDS011;7698;42.478;23.756;2023-04-24T06:24:13;6.10;;;5.50;;
15194;SDS011;7698;42.478;23.756;2023-04-24T06:26:41;6.95;;;5.80;;
15194;SDS011;7698;42.478;23.756;2023-04-24T06:29:07;5.68;;;5.00;;
15194;SDS011;7698;42.478;23.756;2023-04-24T06:31:36;7.13;;;6.43;;
15194;SDS011;7698;42.478;23.756;2023-04-24T06:34:03;7.15;;;6.43;;
15194;SDS011;7698;42.478;23.756;2023-04-24T06:36:30;8.40;;;6.70;;
15194;SDS011;7698;42.478;23.756;2023-04-24T06:38:59;10.75;;;9.68;;
15194;SDS011;7698;42.478;23.756;2023-04-24T06:41:26;10.73;;;9.73;;
15194;SDS011;7698;42.478;23.756;2023-04-24T06:43:53;13.45;;;12.15;;
15194;SDS011;7698;42.478;23.756;2023-04-24T06:46:20;10.90;;;9.93;;
15194;SDS011;7698;42.478;23.756;2023-04-24T06:48:50;11.02;;;9.90;;
15194;SDS011;7698;42.478;23.756;2023-04-24T06:51:17;9.23;;;6.78;;
15194;SDS011;7698;42.478;23.756;2023-04-24T06:53:44;6.25;;;5.65;;
15194;SDS011;7698;42.478;23.756;2023-04-24T06:56:11;7.00;;;5.80;;
15194;SDS011;7698;42.478;23.756;2023-04-24T06:58:37;5.68;;;5.10;;
15194;SDS011;7698;42.478;23.756;2023-04-24T07:01:04;6.80;;;4.20;;
15194;SDS011;7698;42.478;23.756;2023-04-24T07:03:31;4.25;;;3.90;;
15194;SDS011;7698;42.478;23.756;2023-04-24T07:05:59;4.72;;;3.83;;
15194;SDS011;7698;42.478;23.756;2023-04-24T07:08:28;4.53;;;4.13;;
15194;SDS011;7698;42.478;23.756;2023-04-24T07:10:55;5.55;;;4.80;;
15194;SDS011;7698;42.478;23.756;2023-04-24T07:13:22;4.22;;;3.83;;
15194;SDS011;7698;42.478;23.756;2023-04-24T07:15:49;5.22;;;4.70;;
15194;SDS011;7698;42.478;23.756;2023-04-24T07:18:18;6.65;;;3.58;;
15194;SDS011;7698;42.478;23.756;2023-04-24T07:20:46;5.00;;;3.85;;
15194;SDS011;7698;42.478;23.756;2023-04-24T07:23:16;4.60;;;4.30;;
15194;SDS011;7698;42.478;23.756;2023-04-24T07:25:43;4.55;;;3.97;;
15194;SDS011;7698;42.478;23.756;2023-04-24T07:28:10;3.65;;;3.35;;
15194;SDS011;7698;42.478;23.756;2023-04-24T07:30:37;5.07;;;3.85;;
15194;SDS011;7698;42.478;23.756;2023-04-24T07:33:04;6.45;;;3.75;;
15194;SDS011;7698;42.478;23.756;2023-04-24T07:35:32;4.75;;;3.67;;
15194;SDS011;7698;42.478;23.756;2023-04-24T07:37:59;4.30;;;4.00;;
15194;SDS011;7698;42.478;23.756;2023-04-24T07:40:27;3.53;;;3.22;;
15194;SDS011;7698;42.478;23.756;2023-04-24T07:42:54;3.65;;;3.33;;
15194;SDS011;7698;42.478;23.756;2023-04-24T07:45:21;4.20;;;3.80;;
15194;SDS011;7698;42.478;23.756;2023-04-24T07:47:51;5.85;;;3.45;;
15194;SDS011;7698;42.478;23.756;2023-04-24T07:50:18;3.60;;;3.30;;
15194;SDS011;7698;42.478;23.756;2023-04-24T07:52:45;5.63;;;4.35;;
15194;SDS011;7698;42.478;23.756;2023-04-24T07:55:11;4.00;;;3.67;;
15194;SDS011;7698;42.478;23.756;2023-04-24T07:57:39;3.35;;;3.15;;
15194;SDS011;7698;42.478;23.756;2023-04-24T08:00:07;3.13;;;2.92;;
15194;SDS011;7698;42.478;23.756;2023-04-24T08:02:35;4.35;;;3.78;;
15194;SDS011;7698;42.478;23.756;2023-04-24T08:05:02;4.25;;;3.53;;
15194;SDS011;7698;42.478;23.756;2023-04-24T08:07:29;3.80;;;3.40;;
15194;SDS011;7698;42.478;23.756;2023-04-24T08:09:55;3.95;;;3.58;;
15194;SDS011;7698;42.478;23.756;2023-04-24T08:12:22;3.85;;;3.45;;
15194;SDS011;7698;42.478;23.756;2023-04-24T08:14:50;4.25;;;3.90;;
15194;SDS011;7698;42.478;23.756;2023-04-24T08:17:17;3.95;;;3.65;;
15194;SDS011;7698;42.478;23.756;2023-04-24T08:19:44;4.15;;;3.85;;
15194;SDS011;7698;42.478;23.756;2023-04-24T08:22:13;4.82;;;4.30;;
15194;SDS011;7698;42.478;23.756;2023-04-24T08:24:40;4.90;;;4.43;;
15194;SDS011;7698;42.478;23.756;2023-04-24T08:27:07;7.65;;;4.38;;
15194;SDS011;7698;42.478;23.756;2023-04-24T08:29:34;4.07;;;3.67;;
15194;SDS011;7698;42.478;23.756;2023-04-24T08:32:03;4.28;;;3.28;;
15194;SDS011;7698;42.478;23.756;2023-04-24T08:34:29;4.05;;;3.67;;
15194;SDS011;7698;42.478;23.756;2023-04-24T08:36:56;3.92;;;3.58;;
15194;SDS011;7698;42.478;23.756;2023-04-24T08:39:23;3.67;;;3.38;;
15194;SDS011;7698;42.478;23.756;2023-04-24T08:41:50;3.38;;;3.13;;
15194;SDS011;7698;42.478;23.756;2023-04-24T08:44:18;3.90;;;3.60;;
15194;SDS011;7698;42.478;23.756;2023-04-24T08:46:47;3.65;;;3.35;;
15194;SDS011;7698;42.478;23.756;2023-04-24T08:49:17;3.95;;;3.47;;
15194;SDS011;7698;42.478;23.756;2023-04-24T08:51:45;4.22;;;3.63;;
15194;SDS011;7698;42.478;23.756;2023-04-24T08:54:13;3.50;;;3.08;;
15194;SDS011;7698;42.478;23.756;2023-04-24T08:56:40;5.43;;;3.92;;
15194;SDS011;7698;42.478;23.756;2023-04-24T08:59:09;3.88;;;3.35;;
15194;SDS011;7698;42.478;23.756;2023-04-24T09:01:37;3.83;;;3.42;;
15194;SDS011;7698;42.478;23.756;2023-04-24T09:04:05;4.25;;;3.25;;
15194;SDS011;7698;42.478;23.756;2023-04-24T09:06:36;3.67;;;3.38;;
15194;SDS011;7698;42.478;23.756;2023-04-24T09:09:03;3.85;;;3.45;;
15194;SDS011;7698;42.478;23.756;2023-04-24T09:11:30;3.60;;;3.30;;
15194;SDS011;7698;42.478;23.756;2023-04-24T09:13:58;4.38;;;3.58;;
15194;SDS011;7698;42.478;23.756;2023-04-24T09:16:25;5.10;;;3.53;;
15194;SDS011;7698;42.478;23.756;2023-04-24T09:18:53;3.72;;;3.13;;
15194;SDS011;7698;42.478;23.756;2023-04-24T09:21:20;4.45;;;3.20;;
15194;SDS011;7698;42.478;23.756;2023-04-24T09:23:58;3.30;;;3.00;;
15194;SDS011;7698;42.478;23.756;2023-04-24T09:26:26;3.45;;;3.15;;
15194;SDS011;7698;42.478;23.756;2023-04-24T09:28:57;3.45;;;3.15;;
15194;SDS011;7698;42.478;23.756;2023-04-24T09:31:26;3.50;;;3.20;;
15194;SDS011;7698;42.478;23.756;2023-04-24T09:33:55;4.13;;;3.53;;
15194;SDS011;7698;42.478;23.756;2023-04-24T09:36:29;3.10;;;2.90;;
15194;SDS011;7698;42.478;23.756;2023-04-24T09:39:00;3.88;;;3.20;;
15194;SDS011;7698;42.478;23.756;2023-04-24T09:41:28;3.35;;;3.05;;
15194;SDS011;7698;42.478;23.756;2023-04-24T09:43:55;3.50;;;3.25;;
15194;SDS011;7698;42.478;23.756;2023-04-24T09:46:28;3.55;;;3.25;;
15194;SDS011;7698;42.478;23.756;2023-04-24T09:48:56;7.53;;;3.60;;
15194;SDS011;7698;42.478;23.756;2023-04-24T09:51:32;3.88;;;3.08;;
15194;SDS011;7698;42.478;23.756;2023-04-24T09:54:01;11.27;;;3.30;;
15194;SDS011;7698;42.478;23.756;2023-04-24T09:56:29;3.42;;;2.97;;
15194;SDS011;7698;42.478;23.756;2023-04-24T09:59:03;4.80;;;3.85;;
15194;SDS011;7698;42.478;23.756;2023-04-24T10:01:31;4.22;;;3.33;;
15194;SDS011;7698;42.478;23.756;2023-04-24T10:03:58;8.48;;;4.35;;
15194;SDS011;7698;42.478;23.756;2023-04-24T10:06:29;5.20;;;4.18;;
15194;SDS011;7698;42.478;23.756;2023-04-24T10:08:57;3.75;;;3.03;;
15194;SDS011;7698;42.478;23.756;2023-04-24T10:11:26;3.60;;;3.40;;
15194;SDS011;7698;42.478;23.756;2023-04-24T10:13:53;4.20;;;3.55;;
15194;SDS011;7698;42.478;23.756;2023-04-24T10:16:21;3.53;;;3.25;;
15194;SDS011;7698;42.478;23.756;2023-04-24T10:18:48;3.95;;;3.60;;
15194;SDS011;7698;42.478;23.756;2023-04-24T10:21:16;3.40;;;3.20;;
15194;SDS011;7698;42.478;23.756;2023-04-24T10:23:43;3.28;;;2.97;;
15194;SDS011;7698;42.478;23.756;2023-04-24T10:26:12;3.75;;;3.20;;
15194;SDS011;7698;42.478;23.756;2023-04-24T10:28:45;3.33;;;3.03;;
15194;SDS011;7698;42.478;23.756;2023-04-24T10:31:12;4.28;;;3.30;;
15194;SDS011;7698;42.478;23.756;2023-04-24T10:33:40;3.53;;;3.22;;
15194;SDS011;7698;42.478;23.756;2023-04-24T10:36:08;3.95;;;3.65;;
15194;SDS011;7698;42.478;23.756;2023-04-24T10:38:36;5.82;;;3.78;;
15194;SDS011;7698;42.478;23.756;2023-04-24T10:41:07;5.28;;;3.25;;
15194;SDS011;7698;42.478;23.756;2023-04-24T10:43:35;4.22;;;3.25;;
15194;SDS011;7698;42.478;23.756;2023-04-24T10:46:04;3.75;;;2.72;;
15194;SDS011;7698;42.478;23.756;2023-04-24T10:48:32;3.50;;;3.10;;
15194;SDS011;7698;42.478;23.756;2023-04-24T10:51:00;3.78;;;2.90;;
15194;SDS011;7698;42.478;23.756;2023-04-24T10:53:28;3.10;;;2.90;;
15194;SDS011;7698;42.478;23.756;2023-04-24T10:56:00;2.97;;;2.65;;
15194;SDS011;7698;42.478;23.756;2023-04-24T10:58:37;4.50;;;3.25;;
15194;SDS011;7698;42.478;23.756;2023-04-24T11:01:07;2.95;;;2.72;;
15194;SDS011;7698;42.478;23.756;2023-04-24T11:03:34;3.70;;;2.75;;
15194;SDS011;7698;42.478;23.756;2023-04-24T11:06:03;3.53;;;3.20;;
15194;SDS011;7698;42.478;23.756;2023-04-24T11:08:31;3.33;;;3.10;;
15194;SDS011;7698;42.478;23.756;2023-04-24T11:11:06;3.47;;;3.17;;
15194;SDS011;7698;42.478;23.756;2023-04-24T11:16:33;3.40;;;3.10;;
15194;SDS011;7698;42.478;23.756;2023-04-24T11:19:06;3.67;;;3.00;;
15194;SDS011;7698;42.478;23.756;2023-04-24T11:21:41;4.05;;;2.70;;
15194;SDS011;7698;42.478;23.756;2023-04-24T11:24:24;3.17;;;2.97;;
15194;SDS011;7698;42.478;23.756;2023-04-24T11:26:52;3.30;;;3.00;;
15194;SDS011;7698;42.478;23.756;2023-04-24T11:29:20;3.00;;;2.80;;
15194;SDS011;7698;42.478;23.756;2023-04-24T11:31:49;2.92;;;2.72;;
15194;SDS011;7698;42.478;23.756;2023-04-24T11:34:17;3.22;;;2.92;;
15194;SDS011;7698;42.478;23.756;2023-04-24T11:36:44;5.70;;;3.60;;
15194;SDS011;7698;42.478;23.756;2023-04-24T11:39:13;3.63;;;3.33;;
15194;SDS011;7698;42.478;23.756;2023-04-24T11:41:40;4.15;;;3.33;;
15194;SDS011;7698;42.478;23.756;2023-04-24T11:44:08;4.05;;;3.10;;
15194;SDS011;7698;42.478;23.756;2023-04-24T11:46:36;3.30;;;3.00;;
15194;SDS011;7698;42.478;23.756;2023-04-24T11:49:06;4.65;;;3.35;;
15194;SDS011;7698;42.478;23.756;2023-04-24T11:51:33;3.47;;;3.17;;
15194;SDS011;7698;42.478;23.756;2023-04-24T11:54:00;3.35;;;3.05;;
15194;SDS011;7698;42.478;23.756;2023-04-24T11:56:28;3.50;;;3.20;;
15194;SDS011;7698;42.478;23.756;2023-04-24T11:58:55;3.95;;;3.10;;
15194;SDS011;7698;42.478;23.756;2023-04-24T12:01:22;6.00;;;3.40;;
15194;SDS011;7698;42.478;23.756;2023-04-24T12:03:49;4.57;;;3.30;;
15194;SDS011;7698;42.478;23.756;2023-04-24T12:06:17;3.58;;;3.00;;
15194;SDS011;7698;42.478;23.756;2023-04-24T12:08:48;3.97;;;3.30;;
15194;SDS011;7698;42.478;23.756;2023-04-24T12:11:15;3.45;;;3.17;;
15194;SDS011;7698;42.478;23.756;2023-04-24T12:13:44;3.75;;;3.38;;
15194;SDS011;7698;42.478;23.756;2023-04-24T12:16:11;5.90;;;3.50;;
15194;SDS011;7698;42.478;23.756;2023-04-24T12:18:41;3.80;;;3.50;;
15194;SDS011;7698;42.478;23.756;2023-04-24T12:21:15;3.38;;;3.08;;
15194;SDS011;7698;42.478;23.756;2023-04-24T12:23:49;5.85;;;3.40;;
15194;SDS011;7698;42.478;23.756;2023-04-24T12:26:17;3.85;;;3.40;;
15194;SDS011;7698;42.478;23.756;2023-04-24T12:28:46;3.72;;;3.42;;
15194;SDS011;7698;42.478;23.756;2023-04-24T12:31:14;3.85;;;3.45;;
15194;SDS011;7698;42.478;23.756;2023-04-24T12:33:42;6.57;;;3.75;;
15194;SDS011;7698;42.478;23.756;2023-04-24T12:36:09;5.22;;;3.78;;
15194;SDS011;7698;42.478;23.756;2023-04-24T12:38:39;3.45;;;2.75;;
15194;SDS011;7698;42.478;23.756;2023-04-24T12:41:06;2.83;;;2.58;;
15194;SDS011;7698;42.478;23.756;2023-04-24T12:43:34;2.97;;;2.78;;
15194;SDS011;7698;42.478;23.756;2023-04-24T12:46:02;2.97;;;2.70;;
15194;SDS011;7698;42.478;23.756;2023-04-24T12:48:29;3.47;;;3.17;;
15194;SDS011;7698;42.478;23.756;2023-04-24T12:50:57;4.10;;;3.53;;
15194;SDS011;7698;42.478;23.756;2023-04-24T12:53:26;4.05;;;3.63;;
15194;SDS011;7698;42.478;23.756;2023-04-24T12:55:57;4.25;;;3.85;;
15194;SDS011;7698;42.478;23.756;2023-04-24T12:58:24;3.50;;;3.28;;
15194;SDS011;7698;42.478;23.756;2023-04-24T13:00:51;3.60;;;3.33;;
15194;SDS011;7698;42.478;23.756;2023-04-24T13:03:18;4.35;;;3.85;;
15194;SDS011;7698;42.478;23.756;2023-04-24T13:05:45;3.80;;;3.42;;
15194;SDS011;7698;42.478;23.756;2023-04-24T13:08:11;5.00;;;3.60;;
15194;SDS011;7698;42.478;23.756;2023-04-24T13:10:39;3.70;;;3.42;;
15194;SDS011;7698;42.478;23.756;2023-04-24T13:13:08;3.80;;;3.47;;
15194;SDS011;7698;42.478;23.756;2023-04-24T13:15:35;4.40;;;4.00;;
15194;SDS011;7698;42.478;23.756;2023-04-24T13:18:02;3.83;;;3.53;;
15194;SDS011;7698;42.478;23.756;2023-04-24T13:20:29;4.07;;;3.65;;
15194;SDS011;7698;42.478;23.756;2023-04-24T13:22:56;3.95;;;3.60;;
15194;SDS011;7698;42.478;23.756;2023-04-24T13:25:23;3.60;;;3.30;;
15194;SDS011;7698;42.478;23.756;2023-04-24T13:27:50;3.67;;;3.13;;
15194;SDS011;7698;42.478;23.756;2023-04-24T13:30:18;3.20;;;2.90;;
15194;SDS011;7698;42.478;23.756;2023-04-24T13:32:45;2.97;;;2.78;;
15194;SDS011;7698;42.478;23.756;2023-04-24T13:35:12;3.75;;;3.40;;
15194;SDS011;7698;42.478;23.756;2023-04-24T13:37:39;4.60;;;2.90;;
15194;SDS011;7698;42.478;23.756;2023-04-24T13:40:06;3.40;;;3.17;;
15194;SDS011;7698;42.478;23.756;2023-04-24T13:42:34;3.22;;;2.92;;
15194;SDS011;7698;42.478;23.756;2023-04-24T13:45:01;3.20;;;3.00;;
15194;SDS011;7698;42.478;23.756;2023-04-24T13:47:30;3.55;;;3.05;;
15194;SDS011;7698;42.478;23.756;2023-04-24T13:49:56;3.20;;;2.88;;
15194;SDS011;7698;42.478;23.756;2023-04-24T13:52:23;3.20;;;3.00;;
15194;SDS011;7698;42.478;23.756;2023-04-24T13:54:50;2.70;;;2.50;;
15194;SDS011;7698;42.478;23.756;2023-04-24T13:57:17;3.25;;;3.03;;
15194;SDS011;7698;42.478;23.756;2023-04-24T13:59:44;3.75;;;3.45;;
15194;SDS011;7698;42.478;23.756;2023-04-24T14:02:11;3.15;;;2.95;;
15194;SDS011;7698;42.478;23.756;2023-04-24T14:04:40;3.55;;;3.30;;
15194;SDS011;7698;42.478;23.756;2023-04-24T14:07:06;3.90;;;3.60;;
15194;SDS011;7698;42.478;23.756;2023-04-24T14:09:34;5.55;;;3.97;;
15194;SDS011;7698;42.478;23.756;2023-04-24T14:12:00;5.30;;;4.90;;
15194;SDS011;7698;42.478;23.756;2023-04-24T14:14:28;5.10;;;4.63;;
15194;SDS011;7698;42.478;23.756;2023-04-24T14:16:56;4.53;;;4.13;;
15194;SDS011;7698;42.478;23.756;2023-04-24T14:19:23;5.20;;;4.80;;
15194;SDS011;7698;42.478;23.756;2023-04-24T14:21:51;5.28;;;4.88;;
15194;SDS011;7698;42.478;23.756;2023-04-24T14:24:18;6.00;;;5.47;;
15194;SDS011;7698;42.478;23.756;2023-04-24T14:26:45;6.80;;;5.93;;
15194;SDS011;7698;42.478;23.756;2023-04-24T14:29:12;5.72;;;5.22;;
15194;SDS011;7698;42.478;23.756;2023-04-24T14:31:39;5.70;;;5.20;;
15194;SDS011;7698;42.478;23.756;2023-04-24T14:34:06;4.90;;;4.45;;
15194;SDS011;7698;42.478;23.756;2023-04-24T14:36:32;5.95;;;5.38;;
15194;SDS011;7698;42.478;23.756;2023-04-24T14:39:01;6.00;;;4.80;;
15194;SDS011;7698;42.478;23.756;2023-04-24T14:41:31;5.97;;;5.50;;
15194;SDS011;7698;42.478;23.756;2023-04-24T14:44:00;5.15;;;4.75;;
15194;SDS011;7698;42.478;23.756;2023-04-24T14:46:27;5.18;;;4.78;;
15194;SDS011;7698;42.478;23.756;2023-04-24T14:48:55;5.70;;;4.72;;